Time;durP1;ratioP1;P1;durP2;ratioP2;P2;SDS_P1;SDS_P2;PMS_P1;PMS_P2;Temp;Humidity;BMP_temperature;BMP_pressure;BME280_temperature;BME280_humidity;BME280_pressure;Samples;Min_cycle;Max_cycle;Signal;HPM_P1;HPM_P2
2021/08/01 00:01:22;;;;;;;18.57;15.18;;;;;;;20.59;77.76;100521.22;1757890;81;20881;-71
2021/08/01 00:03:51;;;;;;;20.00;15.75;;;;;;;20.57;77.57;100521.37;1757888;80;20976;-70
2021/08/01 00:06:18;;;;;;;19.32;16.40;;;;;;;20.56;77.50;100526.31;1757890;81;20912;-70
2021/08/01 00:08:45;;;;;;;25.70;17.10;;;;;;;20.56;77.49;100529.48;1758004;81;20928;-71
2021/08/01 00:11:12;;;;;;;23.07;18.77;;;;;;;20.54;77.58;100530.95;1757972;80;21500;-71
2021/08/01 00:13:40;;;;;;;26.07;20.08;;;;;;;20.51;77.37;100527.30;1757895;81;20952;-70
2021/08/01 00:16:07;;;;;;;24.55;19.57;;;;;;;20.44;77.43;100527.09;1758006;81;20877;-71
2021/08/01 00:18:35;;;;;;;25.12;19.77;;;;;;;20.39;77.85;100523.25;1757860;81;20908;-71
2021/08/01 00:21:04;;;;;;;22.87;17.57;;;;;;;20.37;77.90;100520.73;1758013;80;20967;-71
2021/08/01 00:23:33;;;;;;;22.02;16.75;;;;;;;20.38;78.10;100529.05;1758104;81;21175;-72
2021/08/01 00:26:00;;;;;;;25.08;17.35;;;;;;;20.37;78.14;100530.56;1757717;81;21442;-71
2021/08/01 00:28:27;;;;;;;24.67;17.67;;;;;;;20.33;78.11;100538.02;1758237;81;20876;-71
2021/08/01 00:30:54;;;;;;;25.12;18.40;;;;;;;20.30;78.29;100541.01;1757944;81;20971;-71
2021/08/01 00:33:21;;;;;;;18.40;16.45;;;;;;;20.29;78.34;100542.81;1757945;81;21085;-70
2021/08/01 00:35:48;;;;;;;21.75;18.10;;;;;;;20.32;78.08;100543.49;1757860;81;21123;-71
2021/08/01 00:38:16;;;;;;;26.42;19.10;;;;;;;20.33;77.93;100545.18;1757762;80;20924;-70
2021/08/01 00:40:45;;;;;;;26.07;18.20;;;;;;;20.32;77.90;100543.02;1757843;81;21011;-71
2021/08/01 00:43:12;;;;;;;29.20;20.68;;;;;;;20.31;77.92;100538.67;1758065;81;21045;-70
2021/08/01 00:45:39;;;;;;;27.32;19.85;;;;;;;20.30;78.03;100533.02;1757860;81;20880;-70
2021/08/01 00:48:09;;;;;;;29.50;20.17;;;;;;;20.28;78.12;100535.83;1758123;81;21777;-70
2021/08/01 00:50:37;;;;;;;23.77;18.23;;;;;;;20.26;77.95;100532.48;1758201;81;21315;-70
2021/08/01 00:53:07;;;;;;;22.05;16.62;;;;;;;20.25;78.15;100529.97;1757843;81;21017;-69
2021/08/01 00:55:35;;;;;;;25.50;18.35;;;;;;;20.24;78.33;100536.30;1757861;81;20856;-69
2021/08/01 00:58:02;;;;;;;22.77;17.10;;;;;;;20.23;78.42;100534.14;1758264;81;20932;-69
2021/08/01 01:00:53;;;;;;;32.23;19.02;;;;;;;20.21;78.46;100534.80;1757900;81;22156;-69
2021/08/01 01:03:24;;;;;;;24.82;17.00;;;;;;;20.20;78.44;100530.45;1748654;81;21399;-70
2021/08/01 01:05:57;;;;;;;22.07;17.02;;;;;;;20.19;78.40;100532.78;1744602;81;21077;-71
2021/08/01 01:08:43;;;;;;;21.50;17.67;;;;;;;20.17;78.33;100529.44;1744674;80;20857;-71
2021/08/01 01:11:16;;;;;;;22.58;16.90;;;;;;;20.14;78.32;100530.23;1702683;81;21530;-71
2021/08/01 01:13:48;;;;;;;24.55;17.05;;;;;;;20.11;78.25;100533.22;1744764;82;21171;-71
2021/08/01 01:16:18;;;;;;;20.90;16.57;;;;;;;20.09;78.22;100532.04;1744746;81;20869;-73
2021/08/01 01:18:51;;;;;;;19.62;14.25;;;;;;;20.06;78.16;100531.86;1744495;82;21564;-72
2021/08/01 01:21:47;;;;;;;19.30;15.03;;;;;;;20.04;78.19;100533.01;1744865;82;20889;-72
2021/08/01 01:24:28;;;;;;;21.02;14.20;;;;;;;20.02;78.27;100540.31;1744511;81;21220;-70
2021/08/01 01:27:13;;;;;;;18.70;15.10;;;;;;;20.01;78.44;100535.97;1744448;81;21176;-72
2021/08/01 01:30:00;;;;;;;18.77;14.68;;;;;;;19.99;78.88;100532.66;1744432;82;20913;-69
2021/08/01 01:32:53;;;;;;;16.97;15.18;;;;;;;20.00;78.96;100540.46;1744751;81;20905;-70
2021/08/01 01:35:20;;;;;;;21.17;14.50;;;;;;;20.00;78.54;100544.45;1733397;82;20932;-69
2021/08/01 01:37:49;;;;;;;15.93;13.60;;;;;;;20.03;78.48;100541.97;1744837;81;20869;-69
2021/08/01 01:40:20;;;;;;;22.25;14.38;;;;;;;20.04;78.37;100548.48;1743075;81;21527;-70
2021/08/01 01:42:51;;;;;;;18.17;12.80;;;;;;;20.06;78.19;100549.67;1742844;81;20874;-74
2021/08/01 01:45:20;;;;;;;18.55;14.13;;;;;;;20.06;78.22;100549.16;1734298;82;21023;-69
2021/08/01 01:47:50;;;;;;;17.73;13.90;;;;;;;20.07;78.39;100545.50;1744586;82;20854;-69
2021/08/01 01:50:18;;;;;;;14.93;13.05;;;;;;;20.08;78.04;100554.34;1733946;82;20905;-69
2021/08/01 01:52:49;;;;;;;17.50;12.98;;;;;;;20.02;78.33;100556.29;1733993;82;21390;-69
2021/08/01 01:55:18;;;;;;;15.95;12.60;;;;;;;19.97;78.61;100557.25;1744459;80;20873;-69
2021/08/01 01:57:47;;;;;;;15.98;12.50;;;;;;;19.97;78.68;100559.42;1744712;81;20881;-69
2021/08/01 02:00:15;;;;;;;16.20;13.90;;;;;;;20.01;78.59;100561.25;1744482;82;20893;-69
2021/08/01 02:02:44;;;;;;;16.02;13.32;;;;;;;20.04;78.41;100568.95;1748042;81;21489;-69
2021/08/01 02:05:25;;;;;;;19.23;12.85;;;;;;;20.06;77.95;100561.64;1756618;81;21330;-69
2021/08/01 02:08:12;;;;;;;19.98;13.75;;;;;;;20.08;78.05;100559.67;1755889;81;20976;-69
2021/08/01 02:10:59;;;;;;;19.00;14.13;;;;;;;20.09;78.19;100565.31;1757870;81;20912;-69
2021/08/01 02:13:33;;;;;;;17.30;14.28;;;;;;;20.11;78.34;100556.69;1757485;80;20924;-69
2021/08/01 02:16:00;;;;;;;19.10;14.23;;;;;;;20.12;78.18;100553.05;1757828;81;20912;-69
2021/08/01 02:18:49;;;;;;;17.07;12.98;;;;;;;20.14;78.04;100560.86;1741033;81;21062;-69
2021/08/01 02:21:20;;;;;;;14.30;12.05;;;;;;;20.13;77.84;100561.36;1758120;81;21435;-69
2021/08/01 02:23:47;;;;;;;13.95;12.23;;;;;;;20.13;77.71;100562.69;1757783;80;20975;-69
2021/08/01 02:26:19;;;;;;;18.05;11.25;;;;;;;20.11;77.78;100579.81;1758138;81;20884;-69
2021/08/01 02:28:49;;;;;;;13.53;12.10;;;;;;;20.09;77.88;100577.30;1758644;81;20908;-69
2021/08/01 02:31:16;;;;;;;18.80;11.95;;;;;;;20.08;78.16;100583.63;1757845;81;21099;-69
2021/08/01 02:33:45;;;;;;;17.10;12.00;;;;;;;20.06;78.27;100581.11;1758116;80;20881;-69
2021/08/01 02:36:17;;;;;;;12.20;11.03;;;;;;;20.06;78.26;100581.11;1757968;80;20927;-68
2021/08/01 02:38:46;;;;;;;13.70;12.18;;;;;;;20.05;78.37;100578.12;1741595;81;20893;-68
2021/08/01 02:41:18;;;;;;;11.88;10.40;;;;;;;20.04;78.31;100583.59;1758192;80;20905;-68
2021/08/01 02:43:47;;;;;;;11.88;10.68;;;;;;;20.05;78.32;100582.59;1758345;81;21090;-68
2021/08/01 02:46:14;;;;;;;12.90;11.53;;;;;;;20.09;78.41;100583.95;1757749;81;20959;-69
2021/08/01 02:48:42;;;;;;;18.37;12.37;;;;;;;20.11;78.36;100582.48;1740958;81;20893;-69
2021/08/01 02:51:09;;;;;;;14.98;10.58;;;;;;;20.14;78.48;100582.16;1741105;80;20959;-72
2021/08/01 02:53:42;;;;;;;15.98;10.78;;;;;;;20.15;78.43;100578.02;1757961;81;20912;-69
2021/08/01 02:56:10;;;;;;;11.50;10.43;;;;;;;20.18;78.31;100580.86;1758319;81;21165;-69
2021/08/01 02:58:37;;;;;;;12.80;11.45;;;;;;;20.19;78.25;100583.38;1757897;81;21303;-69
2021/08/01 03:01:04;;;;;;;13.60;10.90;;;;;;;20.18;78.23;100583.52;1758046;81;21382;-69
2021/08/01 03:03:31;;;;;;;12.35;11.18;;;;;;;20.18;78.53;100588.84;1738079;82;20940;-69
2021/08/01 03:05:58;;;;;;;14.87;11.22;;;;;;;20.20;78.42;100580.21;1752588;82;20889;-69
2021/08/01 03:08:26;;;;;;;12.73;11.05;;;;;;;20.25;78.40;100581.43;1752565;82;21545;-69
2021/08/01 03:10:52;;;;;;;15.58;11.30;;;;;;;20.30;78.21;100584.95;1752804;82;21529;-69
2021/08/01 03:13:19;;;;;;;15.65;12.95;;;;;;;20.35;78.33;100585.31;1752690;82;20900;-69
2021/08/01 03:15:48;;;;;;;16.27;14.23;;;;;;;20.40;78.10;100587.50;1752276;80;20901;-69
2021/08/01 03:18:15;;;;;;;17.95;13.40;;;;;;;20.43;77.88;100588.51;1752741;82;20916;-68
2021/08/01 03:20:43;;;;;;;14.38;12.75;;;;;;;20.44;77.74;100584.88;1752669;82;21021;-69
2021/08/01 03:23:24;;;;;;;16.82;13.13;;;;;;;20.47;77.63;100583.21;1735803;82;21454;-68
2021/08/01 03:26:05;;;;;;;13.98;11.88;;;;;;;20.52;77.44;100589.40;1692743;83;21354;-68
2021/08/01 03:28:33;;;;;;;16.87;12.60;;;;;;;20.54;77.24;100594.91;1692430;84;20963;-67
2021/08/01 03:31:00;;;;;;;14.63;10.88;;;;;;;20.57;77.16;100592.48;1692635;84;21342;-68
2021/08/01 03:33:27;;;;;;;13.53;11.45;;;;;;;20.59;77.31;100590.50;1692375;84;21935;-68
2021/08/01 03:35:54;;;;;;;13.13;11.28;;;;;;;20.64;77.39;100594.34;1692401;84;20999;-68
2021/08/01 03:38:39;;;;;;;13.03;11.20;;;;;;;20.67;77.38;100591.34;1692518;84;21533;-67
2021/08/01 03:41:30;;;;;;;13.40;10.88;;;;;;;20.64;77.59;100586.84;1692380;84;20943;-68
2021/08/01 03:43:57;;;;;;;13.45;12.07;;;;;;;20.64;77.83;100590.84;1692378;84;20963;-69
2021/08/01 03:46:23;;;;;;;15.78;12.30;;;;;;;20.66;78.11;100592.36;1692720;84;21456;-68
2021/08/01 03:48:50;;;;;;;14.65;13.00;;;;;;;20.78;77.92;100597.41;1692255;84;21047;-68
2021/08/01 03:51:17;;;;;;;15.93;13.78;;;;;;;20.90;77.68;100602.30;1692373;84;20936;-68
2021/08/01 03:53:44;;;;;;;16.35;11.65;;;;;;;21.03;77.57;100602.34;1692578;83;21422;-68
2021/08/01 03:56:11;;;;;;;23.77;14.30;;;;;;;21.14;77.47;100599.88;1692574;83;20995;-68
2021/08/01 03:58:38;;;;;;;23.95;13.40;;;;;;;21.25;77.34;100600.41;1692497;84;22107;-68
2021/08/01 04:01:05;;;;;;;16.27;12.70;;;;;;;21.38;76.86;100601.80;1698519;82;20964;-68
2021/08/01 04:03:31;;;;;;;16.32;13.43;;;;;;;21.49;76.47;100606.35;1749549;81;20999;-68
2021/08/01 04:05:59;;;;;;;17.30;11.73;;;;;;;21.61;76.31;100602.03;1744542;82;21077;-69
2021/08/01 04:08:25;;;;;;;17.17;12.68;;;;;;;21.71;76.41;100602.22;1744564;80;20936;-69
2021/08/01 04:10:54;;;;;;;20.35;13.70;;;;;;;21.86;76.38;100602.92;1744634;81;20933;-69
2021/08/01 04:13:23;;;;;;;24.65;14.05;;;;;;;22.02;76.11;100595.41;1744456;81;20941;-70
2021/08/01 04:15:49;;;;;;;23.55;13.53;;;;;;;22.18;75.85;100596.72;1744512;82;20934;-69
2021/08/01 04:18:16;;;;;;;20.65;14.05;;;;;;;22.34;75.42;100595.89;1744567;82;20912;-68
2021/08/01 04:20:43;;;;;;;18.42;12.65;;;;;;;22.49;75.02;100591.52;1744573;82;20933;-68
2021/08/01 04:23:11;;;;;;;16.87;13.72;;;;;;;22.62;74.54;100594.18;1744520;82;21113;-69
2021/08/01 04:25:38;;;;;;;19.95;14.75;;;;;;;22.73;74.37;100591.96;1744147;82;21479;-70
2021/08/01 04:28:04;;;;;;;19.42;13.00;;;;;;;22.89;74.10;100587.05;1744773;82;20941;-70
2021/08/01 04:30:31;;;;;;;21.02;13.00;;;;;;;23.21;73.77;100585.77;1744546;81;21462;-70
2021/08/01 04:32:59;;;;;;;27.55;13.55;;;;;;;23.67;73.21;100580.47;1744559;82;20889;-69
2021/08/01 04:35:26;;;;;;;19.85;14.05;;;;;;;24.19;72.07;100575.72;1744608;82;21795;-69
2021/08/01 04:37:53;;;;;;;26.17;16.12;;;;;;;24.76;70.55;100589.03;1744478;82;20921;-69
2021/08/01 04:40:20;;;;;;;29.63;16.65;;;;;;;25.29;68.54;100582.19;1744488;82;20900;-69
2021/08/01 04:42:47;;;;;;;27.73;17.10;;;;;;;25.83;66.94;100588.41;1744439;81;20897;-68
2021/08/01 04:45:14;;;;;;;28.07;16.35;;;;;;;26.36;65.22;100579.44;1744505;82;20904;-69
2021/08/01 04:47:41;;;;;;;20.92;15.08;;;;;;;26.86;64.07;100575.32;1744793;80;21113;-69
2021/08/01 04:50:09;;;;;;;26.15;17.57;;;;;;;27.36;62.48;100577.79;1744465;80;20861;-69
2021/08/01 04:52:35;;;;;;;24.40;16.87;;;;;;;27.82;61.19;100578.38;1744860;82;21280;-70
2021/08/01 04:55:02;;;;;;;27.52;18.95;;;;;;;28.27;59.85;100577.25;1744390;80;20960;-70
2021/08/01 04:57:30;;;;;;;33.00;20.70;;;;;;;28.70;58.97;100578.10;1744845;82;20877;-69
2021/08/01 04:59:57;;;;;;;21.90;17.32;;;;;;;29.10;58.11;100577.97;1744650;82;21516;-70
2021/08/01 05:02:23;;;;;;;37.40;22.02;;;;;;;29.49;56.57;100569.35;1744716;82;20972;-70
2021/08/01 05:04:51;;;;;;;38.30;27.87;;;;;;;29.91;55.67;100572.39;1754186;81;21015;-70
2021/08/01 05:07:19;;;;;;;49.73;34.23;;;;;;;30.30;54.85;100570.39;1757868;81;20928;-69
2021/08/01 05:09:47;;;;;;;42.65;29.95;;;;;;;30.66;54.00;100564.69;1757876;81;21398;-70
2021/08/01 05:12:17;;;;;;;42.62;32.78;;;;;;;30.98;53.06;100570.80;1757917;80;21126;-70
2021/08/01 05:14:45;;;;;;;78.95;53.25;;;;;;;31.31;52.42;100560.86;1758127;81;21382;-71
2021/08/01 05:17:13;;;;;;;52.00;38.00;;;;;;;31.64;50.77;100560.92;1757824;81;20924;-70
2021/08/01 05:19:42;;;;;;;69.47;50.73;;;;;;;31.97;50.69;100559.55;1757823;81;20975;-71
2021/08/01 05:22:09;;;;;;;66.37;46.50;;;;;;;32.26;50.43;100557.80;1757777;81;21465;-69
2021/08/01 05:24:37;;;;;;;57.67;42.53;;;;;;;32.56;49.10;100557.66;1758116;80;21119;-70
2021/08/01 05:27:05;;;;;;;67.92;45.88;;;;;;;32.80;48.46;100565.75;1757780;81;20884;-71
2021/08/01 05:29:32;;;;;;;65.87;49.18;;;;;;;33.03;47.81;100569.73;1757784;81;20948;-70
2021/08/01 05:31:59;;;;;;;64.85;47.27;;;;;;;33.23;47.37;100567.96;1758146;81;21469;-70
2021/08/01 05:34:25;;;;;;;69.32;50.20;;;;;;;33.46;46.90;100570.27;1757808;81;20924;-70
2021/08/01 05:36:55;;;;;;;68.52;47.98;;;;;;;33.69;46.14;100573.97;1758157;81;21774;-70
2021/08/01 05:39:22;;;;;;;58.30;43.68;;;;;;;33.93;45.91;100571.88;1757783;80;20888;-71
2021/08/01 05:41:50;;;;;;;55.55;42.43;;;;;;;34.18;45.44;100570.13;1757812;81;20853;-72
2021/08/01 05:44:17;;;;;;;52.13;41.25;;;;;;;34.42;44.96;100569.37;1757692;81;20925;-70
2021/08/01 05:46:44;;;;;;;57.00;42.45;;;;;;;34.69;44.49;100570.84;1757816;81;21333;-71
2021/08/01 05:49:11;;;;;;;53.35;40.33;;;;;;;34.98;43.62;100576.08;1757780;80;21148;-70
2021/08/01 05:51:45;;;;;;;51.45;40.23;;;;;;;35.20;42.94;100579.62;1757988;81;20935;-70
2021/08/01 05:54:11;;;;;;;50.03;37.10;;;;;;;35.43;42.49;100575.73;1757818;81;21394;-71
2021/08/01 05:56:38;;;;;;;51.08;36.68;;;;;;;35.67;42.09;100579.53;1757768;81;20900;-69
2021/08/01 05:59:05;;;;;;;49.27;35.00;;;;;;;35.90;41.49;100576.97;1757848;81;20881;-70
2021/08/01 06:01:33;;;;;;;55.92;34.90;;;;;;;36.06;41.24;100579.26;1757779;81;21063;-70
2021/08/01 06:04:00;;;;;;;39.73;32.85;;;;;;;36.18;41.17;100577.75;1754288;81;20897;-71
2021/08/01 06:06:27;;;;;;;40.60;30.40;;;;;;;36.23;40.98;100573.67;1744494;81;20849;-72
2021/08/01 06:08:56;;;;;;;40.20;29.55;;;;;;;36.29;41.26;100581.63;1744447;82;20901;-70
2021/08/01 06:11:23;;;;;;;39.18;31.33;;;;;;;36.38;41.07;100580.59;1744517;82;20944;-71
2021/08/01 06:13:50;;;;;;;41.18;30.35;;;;;;;36.52;41.10;100574.09;1744452;81;21506;-70
2021/08/01 06:16:17;;;;;;;37.85;29.42;;;;;;;36.68;40.58;100577.19;1744759;82;20904;-70
2021/08/01 06:18:44;;;;;;;35.55;28.12;;;;;;;36.83;40.05;100570.16;1744443;81;20928;-75
2021/08/01 06:21:19;;;;;;;32.73;26.57;;;;;;;36.90;40.31;100570.71;1744637;82;20960;-70
2021/08/01 06:23:51;;;;;;;33.05;25.45;;;;;;;36.96;39.38;100575.66;1744528;82;20881;-72
2021/08/01 06:26:20;;;;;;;28.70;25.27;;;;;;;36.92;39.81;100577.55;1745368;81;21752;-72
2021/08/01 06:28:47;;;;;;;25.50;21.02;;;;;;;36.85;39.46;100581.09;1744707;82;21470;-72
2021/08/01 06:31:14;;;;;;;25.48;20.85;;;;;;;36.59;38.53;100585.59;1744602;81;20929;-71
2021/08/01 06:33:41;;;;;;;24.20;17.77;;;;;;;36.42;38.52;100581.71;1744532;82;21023;-70
2021/08/01 06:36:12;;;;;;;21.90;17.90;;;;;;;36.28;37.62;100577.23;1744698;81;21374;-71
2021/08/01 06:38:40;;;;;;;22.35;18.40;;;;;;;36.19;38.18;100585.66;1744640;82;21142;-70
2021/08/01 06:41:08;;;;;;;20.45;18.25;;;;;;;36.22;37.51;100576.95;1744786;80;20885;-71
2021/08/01 06:43:34;;;;;;;22.62;16.73;;;;;;;36.22;37.12;100577.47;1744648;80;20858;-70
2021/08/01 06:46:02;;;;;;;23.35;17.50;;;;;;;36.24;36.86;100573.94;1744631;81;21000;-72
2021/08/01 06:48:29;;;;;;;17.95;15.35;;;;;;;36.37;37.52;100574.02;1744669;82;21398;-71
2021/08/01 06:50:56;;;;;;;24.60;15.60;;;;;;;36.40;37.28;100575.69;1744679;82;21141;-68
2021/08/01 06:53:23;;;;;;;19.87;15.93;;;;;;;36.46;36.27;100569.69;1744775;82;20929;-69
2021/08/01 06:55:51;;;;;;;20.30;15.55;;;;;;;36.63;36.43;100576.36;1744589;82;21007;-72
2021/08/01 06:58:18;;;;;;;23.52;15.28;;;;;;;36.91;36.35;100577.84;1744634;82;21363;-70
2021/08/01 07:00:47;;;;;;;22.82;15.48;;;;;;;37.10;34.96;100575.44;1744738;81;20853;-70
2021/08/01 07:03:15;;;;;;;20.25;14.33;;;;;;;37.32;34.77;100573.28;1744527;82;21141;-70
2021/08/01 07:05:42;;;;;;;18.32;13.38;;;;;;;37.52;34.31;100575.22;1743941;82;21083;-71
2021/08/01 07:08:09;;;;;;;16.80;13.15;;;;;;;37.66;34.10;100573.33;1744648;82;20845;-71
2021/08/01 07:10:36;;;;;;;15.55;13.72;;;;;;;37.86;34.08;100567.02;1744507;82;20900;-72
2021/08/01 07:13:05;;;;;;;14.53;13.00;;;;;;;38.17;34.10;100573.29;1744627;80;20889;-71
2021/08/01 07:15:32;;;;;;;13.98;12.10;;;;;;;38.50;34.11;100569.11;1744540;82;21192;-71
2021/08/01 07:18:00;;;;;;;13.43;11.78;;;;;;;38.84;33.45;100571.69;1744862;82;20905;-69
2021/08/01 07:20:27;;;;;;;12.63;11.08;;;;;;;39.04;33.14;100565.30;1744548;82;21333;-70
2021/08/01 07:22:55;;;;;;;17.05;11.33;;;;;;;39.20;33.02;100567.39;1744554;82;20901;-70
2021/08/01 07:25:23;;;;;;;19.65;17.50;;;;;;;39.28;31.96;100564.86;1744637;82;21516;-70
2021/08/01 07:27:52;;;;;;;12.68;11.35;;;;;;;39.40;32.34;100573.31;1744951;81;21136;-70
2021/08/01 07:30:19;;;;;;;7.40;5.85;;;;;;;39.52;31.79;100564.16;1744316;81;21407;-70
2021/08/01 07:32:47;;;;;;;7.03;6.33;;;;;;;39.59;27.26;100564.64;1744500;80;20920;-70
2021/08/01 07:35:13;;;;;;;6.15;5.55;;;;;;;39.68;27.77;100573.08;1744589;81;21451;-69
2021/08/01 07:37:40;;;;;;;5.30;4.90;;;;;;;39.82;26.40;100569.92;1745019;81;20873;-70
2021/08/01 07:40:07;;;;;;;6.00;5.50;;;;;;;39.93;27.11;100570.14;1744603;82;22124;-71
2021/08/01 07:42:35;;;;;;;5.28;4.78;;;;;;;40.08;27.94;100575.20;1744570;82;20921;-70
2021/08/01 07:45:03;;;;;;;5.00;4.70;;;;;;;40.19;24.67;100564.36;1744811;82;20999;-69
2021/08/01 07:47:33;;;;;;;6.00;4.60;;;;;;;40.27;25.99;100567.06;1745093;81;21335;-70
2021/08/01 07:49:59;;;;;;;5.90;4.80;;;;;;;40.29;26.41;100570.31;1744607;81;21300;-70
2021/08/01 07:52:26;;;;;;;7.12;5.55;;;;;;;40.35;27.02;100569.95;1744518;82;21092;-70
2021/08/01 07:54:53;;;;;;;6.37;5.03;;;;;;;40.49;26.59;100573.38;1744550;81;20972;-70
2021/08/01 07:57:27;;;;;;;6.28;4.65;;;;;;;40.65;26.84;100579.52;1744779;82;20850;-72
2021/08/01 07:59:55;;;;;;;8.70;5.85;;;;;;;40.80;26.26;100574.66;1744408;80;20901;-71
2021/08/01 08:02:21;;;;;;;8.00;6.12;;;;;;;40.92;25.90;100580.27;1744640;82;20841;-72
2021/08/01 08:04:48;;;;;;;6.50;5.35;;;;;;;40.94;26.29;100579.42;1747263;80;21512;-70
2021/08/01 08:07:15;;;;;;;7.60;5.83;;;;;;;41.00;25.58;100578.21;1757882;81;21367;-71
2021/08/01 08:09:42;;;;;;;4.67;4.28;;;;;;;41.10;25.35;100578.64;1757832;81;20987;-70
2021/08/01 08:12:09;;;;;;;5.80;5.37;;;;;;;41.18;25.51;100575.25;1757881;81;20885;-71
2021/08/01 08:14:36;;;;;;;6.28;5.53;;;;;;;41.29;25.48;100572.59;1757764;80;21331;-71
2021/08/01 08:17:03;;;;;;;5.55;4.87;;;;;;;41.35;25.59;100574.12;1757832;81;21096;-72
2021/08/01 08:19:30;;;;;;;5.22;4.28;;;;;;;41.39;25.91;100571.04;1757817;81;21366;-71
2021/08/01 08:21:57;;;;;;;7.90;4.90;;;;;;;41.45;24.86;100578.67;1757930;81;21378;-71
2021/08/01 08:24:25;;;;;;;4.75;4.25;;;;;;;41.45;24.70;100574.54;1757848;80;21422;-74
2021/08/01 08:26:53;;;;;;;4.03;3.70;;;;;;;41.52;23.53;100583.79;1757833;81;20952;-71
2021/08/01 08:29:23;;;;;;;3.62;3.40;;;;;;;41.48;23.62;100571.74;1757924;81;21991;-73
2021/08/01 08:31:50;;;;;;;4.17;3.87;;;;;;;41.43;24.64;100571.27;1757809;81;20872;-72
2021/08/01 08:34:19;;;;;;;4.50;4.10;;;;;;;41.34;24.24;100568.95;1757893;80;20936;-70
2021/08/01 08:36:47;;;;;;;4.35;4.05;;;;;;;41.31;24.95;100574.50;1757960;81;20880;-71
2021/08/01 08:39:15;;;;;;;4.25;3.83;;;;;;;41.39;25.37;100570.23;1758253;81;20876;-70
2021/08/01 08:41:43;;;;;;;6.55;4.37;;;;;;;41.47;25.05;100573.69;1757948;81;21126;-70
2021/08/01 08:44:10;;;;;;;8.35;6.22;;;;;;;41.55;25.02;100572.16;1758022;81;20986;-71
2021/08/01 08:46:37;;;;;;;4.05;3.77;;;;;;;41.67;25.81;100579.44;1757874;81;20834;-70
2021/08/01 08:49:11;;;;;;;5.20;3.72;;;;;;;41.78;25.13;100576.75;1758149;81;20908;-71
2021/08/01 08:51:39;;;;;;;4.30;3.90;;;;;;;41.91;23.26;100579.28;1756845;81;20881;-69
2021/08/01 08:54:15;;;;;;;6.90;3.95;;;;;;;41.94;22.95;100577.85;1758097;81;21126;-69
2021/08/01 08:56:42;;;;;;;5.58;3.98;;;;;;;41.65;23.45;100576.73;1757776;81;21100;-69
2021/08/01 08:59:12;;;;;;;4.40;4.03;;;;;;;41.14;23.83;100572.27;1695672;83;20892;-69
2021/08/01 09:01:40;;;;;;;4.78;4.37;;;;;;;40.79;25.31;100575.76;1721774;82;20899;-70
2021/08/01 09:04:07;;;;;;;5.55;4.30;;;;;;;40.50;25.58;100573.09;1722111;83;20891;-69
2021/08/01 09:06:33;;;;;;;6.28;5.78;;;;;;;40.42;26.85;100579.79;1717442;82;21416;-68
2021/08/01 09:09:01;;;;;;;4.53;4.03;;;;;;;40.44;25.89;100572.88;1716378;83;20967;-69
2021/08/01 09:11:28;;;;;;;5.28;4.78;;;;;;;40.45;24.50;100569.03;1716414;83;21410;-70
2021/08/01 11:19:02;;;;;;;7.60;5.80;;;;;;;37.97;29.51;100519.91;1767020;80;22764;-77
2021/08/01 11:21:39;;;;;;;4.92;4.47;;;;;;;38.21;29.89;100520.15;1677150;81;20888;-75
2021/08/01 11:24:10;;;;;;;5.47;4.85;;;;;;;38.25;26.39;100511.65;1758369;81;21139;-76
2021/08/01 11:26:47;;;;;;;10.27;5.53;;;;;;;38.18;26.54;100513.31;1758313;80;21372;-74
2021/08/01 11:29:14;;;;;;;5.55;4.60;;;;;;;38.13;26.16;100514.68;1754473;81;20919;-73
2021/08/01 11:31:43;;;;;;;5.35;4.95;;;;;;;38.09;28.55;100513.06;1758111;81;20982;-76
2021/08/01 11:34:20;;;;;;;6.67;5.28;;;;;;;38.00;28.79;100515.23;1714604;81;20888;-76
2021/08/01 11:36:48;;;;;;;9.03;6.45;;;;;;;37.86;30.05;100506.79;1757493;80;21486;-75
2021/08/01 11:39:16;;;;;;;5.75;5.35;;;;;;;37.65;30.75;100508.75;1758333;81;21492;-76
2021/08/01 11:41:44;;;;;;;6.12;5.62;;;;;;;37.33;30.96;100512.55;1758283;81;20887;-76
2021/08/01 11:44:22;;;;;;;8.10;6.55;;;;;;;37.12;30.51;100512.55;1758259;81;21702;-73
2021/08/01 11:47:00;;;;;;;12.33;7.50;;;;;;;36.99;31.57;100505.39;1758062;80;21306;-74
2021/08/01 11:49:45;;;;;;;9.15;6.33;;;;;;;36.87;32.48;100501.55;1757739;81;21136;-74
2021/08/01 11:52:13;;;;;;;6.10;5.70;;;;;;;36.69;32.63;100498.23;1758149;81;20881;-73
2021/08/01 11:54:42;;;;;;;7.42;6.00;;;;;;;36.58;31.78;100498.45;1758221;81;20928;-75
2021/08/01 11:57:12;;;;;;;6.37;5.20;;;;;;;36.49;32.18;100498.14;1758046;80;21350;-80
2021/08/01 11:59:42;;;;;;;8.55;6.53;;;;;;;36.40;32.77;100497.84;1758156;81;21473;-76
2021/08/01 12:02:14;;;;;;;8.75;6.12;;;;;;;36.29;33.13;100497.52;1758280;80;21226;-76
2021/08/01 12:04:56;;;;;;;9.53;6.37;;;;;;;35.97;33.82;100500.31;1758279;81;20880;-75
2021/08/01 12:07:38;;;;;;;9.10;6.90;;;;;;;35.59;34.12;100500.86;1758589;81;21018;-77
2021/08/01 12:10:17;;;;;;;9.95;6.83;;;;;;;35.17;34.23;100500.23;1759573;81;20986;-69
2021/08/01 12:12:45;;;;;;;7.45;6.70;;;;;;;34.84;34.24;100493.36;1760499;81;21010;-74
2021/08/01 12:15:12;;;;;;;9.90;7.03;;;;;;;34.57;34.60;100493.28;1759627;81;21099;-76
2021/08/01 12:17:39;;;;;;;6.65;6.10;;;;;;;34.36;35.57;100495.49;1757949;81;20994;-78
2021/08/01 12:20:08;;;;;;;6.95;6.33;;;;;;;34.19;35.46;100495.53;1757640;80;20904;-80
2021/08/01 12:22:35;;;;;;;7.53;6.92;;;;;;;34.06;35.23;100490.73;1757522;81;20983;-78
2021/08/01 12:25:05;;;;;;;13.28;6.37;;;;;;;34.01;35.18;100492.55;1757627;81;20841;-77
2021/08/01 12:27:35;;;;;;;7.65;6.85;;;;;;;33.89;35.50;100500.00;1757553;80;21097;-81
2021/08/01 12:30:09;;;;;;;6.67;6.08;;;;;;;33.76;34.43;100489.74;1757297;81;20916;-79
2021/08/01 12:32:39;;;;;;;6.92;6.22;;;;;;;33.67;34.32;100498.59;1758101;80;20900;-75
2021/08/01 12:35:18;;;;;;;6.90;6.25;;;;;;;33.56;34.55;100503.82;1757640;80;20973;-77
2021/08/01 12:38:00;;;;;;;7.08;6.28;;;;;;;33.52;35.88;100502.66;1757756;81;21070;-81
2021/08/01 12:40:44;;;;;;;8.00;6.45;;;;;;;33.41;36.38;100499.48;1757791;80;21175;-77
2021/08/01 12:43:13;;;;;;;7.53;6.60;;;;;;;33.25;36.58;100498.41;1757635;81;20912;-78
2021/08/01 12:45:43;;;;;;;7.05;6.33;;;;;;;33.13;36.26;100499.00;1757848;81;21397;-76
2021/08/01 12:48:13;;;;;;;6.75;6.10;;;;;;;33.03;36.60;100498.27;1757705;80;20931;-76
2021/08/01 12:50:46;;;;;;;6.95;6.42;;;;;;;32.90;37.03;100501.28;1757772;81;21397;-77
2021/08/01 12:53:17;;;;;;;9.38;6.78;;;;;;;32.77;37.73;100496.95;1757455;80;21111;-77
2021/08/01 12:55:44;;;;;;;9.30;6.95;;;;;;;32.69;38.16;100500.08;1738794;81;21422;-76
2021/08/01 12:58:12;;;;;;;7.05;6.30;;;;;;;32.63;38.25;100496.42;1757736;81;21388;-76
2021/08/01 13:00:57;;;;;;;6.90;6.28;;;;;;;32.58;35.96;100501.76;1757805;80;20904;-74
2021/08/01 13:03:41;;;;;;;8.33;7.62;;;;;;;32.50;35.57;100496.66;1757268;81;21559;-75
2021/08/01 13:06:09;;;;;;;8.03;6.37;;;;;;;32.41;34.91;100498.39;1757670;81;21138;-78
2021/08/01 13:08:39;;;;;;;8.13;6.00;;;;;;;32.32;35.08;100494.40;1757794;80;20944;-78
2021/08/01 13:11:07;;;;;;;6.92;6.10;;;;;;;32.24;34.57;100489.36;1757478;81;21349;-76
2021/08/01 13:13:50;;;;;;;6.97;6.28;;;;;;;32.15;35.93;100483.98;1757588;81;20857;-77
2021/08/01 13:16:18;;;;;;;7.65;5.95;;;;;;;32.07;35.27;100487.91;1740540;81;21409;-75
2021/08/01 13:18:46;;;;;;;7.28;6.50;;;;;;;31.98;36.27;100487.97;1762793;80;20892;-76
2021/08/01 13:21:22;;;;;;;9.80;6.22;;;;;;;31.93;37.07;100490.55;1766529;81;21374;-76
2021/08/01 13:23:52;;;;;;;9.13;6.47;;;;;;;31.84;37.96;100490.08;1766467;80;20884;-75
2021/08/01 13:26:26;;;;;;;7.62;7.03;;;;;;;31.77;39.00;100492.91;1766345;80;21428;-75
2021/08/01 13:29:21;;;;;;;8.20;7.40;;;;;;;31.71;38.69;100483.53;1765859;80;20920;-78
2021/08/01 13:31:49;;;;;;;7.78;7.00;;;;;;;31.64;37.46;100485.51;1766275;80;21523;-75